Time;durP1;ratioP1;P1;durP2;ratioP2;P2;SDS_P1;SDS_P2;PMS_P1;PMS_P2;Temp;Humidity;BMP_temperature;BMP_pressure;BME280_temperature;BME280_humidity;BME280_pressure;Samples;Min_cycle;Max_cycle;Signal;HPM_P1;HPM_P2
2021/03/13 00:00:25;;;;;;;;;;;;;;;3.72;100.00;99355.97;5071302;28;19927;-70
2021/03/13 00:02:51;;;;;;;;;;;;;;;3.75;100.00;99346.81;5071148;28;19920;-70
2021/03/13 00:05:21;;;;;;;;;;;;;;;3.77;100.00;99353.78;5071303;28;19965;-70
2021/03/13 00:07:47;;;;;;;;;;;;;;;3.75;100.00;99344.97;5071146;28;19974;-70
2021/03/13 00:10:13;;;;;;;;;;;;;;;3.72;100.00;99349.75;5088465;28;20010;-70
2021/03/13 00:12:39;;;;;;;;;;;;;;;3.66;100.00;99345.66;5073454;28;19927;-70
2021/03/13 00:15:07;;;;;;;;;;;;;;;3.63;100.00;99338.69;5075450;28;19960;-70
2021/03/13 00:17:33;;;;;;;;;;;;;;;3.62;100.00;99339.69;5070921;28;19924;-70
2021/03/13 00:19:58;;;;;;;;;;;;;;;3.65;100.00;99343.97;5085458;28;19926;-70
2021/03/13 00:22:24;;;;;;;;;;;;;;;3.67;100.00;99340.22;5082257;28;19920;-70
2021/03/13 00:24:50;;;;;;;;;;;;;;;3.73;100.00;99352.31;5070945;28;20007;-69
2021/03/13 00:27:17;;;;;;;;;;;;;;;3.75;100.00;99350.34;5072070;28;19920;-70
2021/03/13 00:29:43;;;;;;;;;;;;;;;3.81;100.00;99357.97;5071597;28;20298;-70
2021/03/13 00:32:09;;;;;;;;;;;;;;;3.83;100.00;99339.88;5075929;28;19965;-70
2021/03/13 00:34:35;;;;;;;;;;;;;;;3.85;100.00;99331.75;5081343;28;19928;-69
2021/03/13 00:37:01;;;;;;;;;;;;;;;3.91;100.00;99343.84;5070887;28;19920;-69
2021/03/13 00:39:27;;;;;;;;;;;;;;;3.92;100.00;99340.19;5074419;28;20307;-69
2021/03/13 00:41:53;;;;;;;;;;;;;;;3.89;100.00;99337.72;5074015;28;19931;-69
2021/03/13 00:44:19;;;;;;;;;;;;;;;3.92;100.00;99337.50;5075103;28;19921;-69
2021/03/13 00:46:45;;;;;;;;;;;;;;;3.89;100.00;99343.97;5074721;28;20011;-69
2021/03/13 00:49:12;;;;;;;;;;;;;;;3.92;100.00;99359.00;5057340;28;20397;-71
2021/03/13 00:51:38;;;;;;;;;;;;;;;3.95;100.00;99337.28;5074984;28;19924;-70
2021/03/13 00:54:04;;;;;;;;;;;;;;;3.95;100.00;99343.47;5080132;28;20439;-70
2021/03/13 00:56:30;;;;;;;;;;;;;;;3.96;100.00;99344.34;5056385;28;19920;-70
2021/03/13 00:58:56;;;;;;;;;;;;;;;3.86;100.00;99349.53;5091154;28;20004;-70
2021/03/13 01:01:22;;;;;;;;;;;;;;;3.88;100.00;99346.78;5073651;28;20390;-70
2021/03/13 01:03:48;;;;;;;;;;;;;;;3.86;100.00;99352.22;5056896;28;19927;-70
2021/03/13 01:06:15;;;;;;;;;;;;;;;3.82;100.00;99348.06;5075482;28;19927;-70
2021/03/13 01:08:41;;;;;;;;;;;;;;;3.82;100.00;99346.25;5095254;28;19924;-70
2021/03/13 01:11:18;;;;;;;;;;;;;;;3.77;100.00;99345.75;5075165;28;19924;-69
2021/03/13 01:13:49;;;;;;;;;;;;;;;3.75;100.00;99344.97;5094953;28;19920;-69
2021/03/13 01:16:17;;;;;;;;;;;;;;;3.74;100.00;99354.03;5072909;28;20050;-69
2021/03/13 01:18:44;;;;;;;;;;;;;;;3.74;100.00;99334.38;5074601;28;19921;-70
2021/03/13 01:21:15;;;;;;;;;;;;;;;3.71;100.00;99346.19;5057677;28;20412;-69
2021/03/13 01:23:44;;;;;;;;;;;;;;;3.74;100.00;99356.72;5056747;28;19924;-70
2021/03/13 01:26:14;;;;;;;;;;;;;;;3.78;100.00;99354.63;5076606;28;20328;-70
2021/03/13 01:28:40;;;;;;;;;;;;;;;3.79;100.00;99351.00;5076751;28;19924;-71
2021/03/13 01:31:17;;;;;;;;;;;;;;;3.80;100.00;99353.56;5020344;28;20043;-70
2021/03/13 01:33:43;;;;;;;;;;;;;;;3.81;100.00;99349.91;5052948;28;19921;-69
2021/03/13 01:36:10;;;;;;;;;;;;;;;3.80;100.00;99334.75;5075195;28;19919;-70
2021/03/13 01:38:39;;;;;;;;;;;;;;;3.81;100.00;99341.00;5094557;28;20328;-70
2021/03/13 01:41:08;;;;;;;;;;;;;;;3.75;100.00;99341.47;5075577;28;20234;-69
2021/03/13 01:43:34;;;;;;;;;;;;;;;3.70;100.00;99333.72;5056137;28;19921;-69
2021/03/13 01:46:01;;;;;;;;;;;;;;;3.73;100.00;99338.00;5072464;28;19920;-70
2021/03/13 01:48:31;;;;;;;;;;;;;;;3.74;100.00;99347.78;5075986;28;19950;-69
2021/03/13 01:50:58;;;;;;;;;;;;;;;3.78;100.00;99347.47;5059544;28;19920;-69
2021/03/13 01:53:24;;;;;;;;;;;;;;;3.72;100.00;99342.53;5055871;28;19931;-69
2021/03/13 01:55:51;;;;;;;;;;;;;;;3.65;100.00;99330.56;5074415;28;19921;-69
2021/03/13 01:58:17;;;;;;;;;;;;;;;3.58;100.00;99334.66;5055961;28;19924;-69
2021/03/13 02:00:46;;;;;;;;;;;;;;;3.60;100.00;99338.94;5068813;28;19928;-69
2021/03/13 02:03:13;;;;;;;;;;;;;;;3.57;100.00;99339.19;5075627;28;19920;-70
2021/03/13 02:05:42;;;;;;;;;;;;;;;3.57;100.00;99327.56;5063444;28;19959;-70
2021/03/13 02:08:12;;;;;;;;;;;;;;;3.56;100.00;99336.63;5073586;28;19927;-70
2021/03/13 02:10:42;;;;;;;;;;;;;;;3.59;100.00;99331.00;5066197;28;19920;-70
2021/03/13 02:13:16;;;;;;;;;;;;;;;3.57;100.00;99333.81;5075657;28;20381;-70
2021/03/13 02:15:48;;;;;;;;;;;;;;;3.57;100.00;99327.56;5064907;28;19970;-70
2021/03/13 02:18:19;;;;;;;;;;;;;;;3.57;100.00;99336.50;5055514;28;19928;-70
2021/03/13 02:21:02;;;;;;;;;;;;;;;3.56;100.00;99336.63;5083998;28;19924;-70
2021/03/13 02:23:30;;;;;;;;;;;;;;;3.52;100.00;99331.44;5075242;28;20030;-70
2021/03/13 02:26:23;;;;;;;;;;;;;;;3.52;100.00;99331.44;5080282;28;20010;-70
2021/03/13 02:29:19;;;;;;;;;;;;;;;3.58;100.00;99329.28;5074915;28;20434;-70
2021/03/13 02:31:56;;;;;;;;;;;;;;;3.54;100.00;99326.00;5055939;28;20378;-70
2021/03/13 02:34:26;;;;;;;;;;;;;;;3.48;100.00;99334.50;5087890;28;19924;-70
2021/03/13 02:36:54;;;;;;;;;;;;;;;3.45;100.00;99342.78;5074922;28;19928;-70
2021/03/13 02:39:22;;;;;;;;;;;;;;;3.51;100.00;99345.88;5078107;28;20286;-70
2021/03/13 02:42:00;;;;;;;;;;;;;;;3.56;100.00;99341.97;5073040;28;19920;-70
2021/03/13 02:44:28;;;;;;;;;;;;;;;3.63;100.00;99340.53;5069120;28;19920;-70
2021/03/13 02:47:02;;;;;;;;;;;;;;;3.66;100.00;99340.31;5074218;28;19927;-70
2021/03/13 02:49:36;;;;;;;;;;;;;;;3.70;100.00;99339.09;5055295;28;19952;-70
2021/03/13 02:52:10;;;;;;;;;;;;;;;3.68;100.00;99335.69;5042961;28;20364;-70
2021/03/13 02:54:40;;;;;;;;;;;;;;;3.64;100.00;99335.06;5055047;28;20351;-70
2021/03/13 02:57:07;;;;;;;;;;;;;;;3.61;100.00;99337.97;5054471;28;20019;-70
2021/03/13 02:59:35;;;;;;;;;;;;;;;3.62;100.00;99336.13;5074275;28;19957;-70
2021/03/13 03:02:02;;;;;;;;;;;;;;;3.66;100.00;99338.50;5063160;28;20368;-70
2021/03/13 03:04:28;;;;;;;;;;;;;;;3.65;100.00;99334.09;5072554;28;19924;-70
2021/03/13 03:06:58;;;;;;;;;;;;;;;3.68;100.00;99333.00;5063387;28;19927;-70
2021/03/13 03:09:24;;;;;;;;;;;;;;;3.65;100.00;99331.41;5074835;28;19920;-70
2021/03/13 03:11:54;;;;;;;;;;;;;;;3.55;100.00;99329.53;5058477;28;19920;-70
2021/03/13 03:14:20;;;;;;;;;;;;;;;3.48;100.00;99319.25;5072466;28;19931;-70
2021/03/13 03:16:49;;;;;;;;;;;;;;;3.46;100.00;99337.28;5054776;28;19942;-69
2021/03/13 03:19:20;;;;;;;;;;;;;;;3.51;100.00;99334.25;5054624;28;20306;-70
2021/03/13 03:21:55;;;;;;;;;;;;;;;3.50;100.00;99338.78;5054930;28;20436;-70
2021/03/13 03:24:21;;;;;;;;;;;;;;;3.51;100.00;99334.25;5054430;28;20307;-70
2021/03/13 03:26:47;;;;;;;;;;;;;;;3.42;100.00;99333.13;5085673;28;19923;-70
2021/03/13 03:29:14;;;;;;;;;;;;;;;3.27;100.00;99331.56;5066574;28;19921;-70
2021/03/13 03:31:40;;;;;;;;;;;;;;;3.18;100.00;99336.63;5054409;28;19986;-70
2021/03/13 03:34:10;;;;;;;;;;;;;;;3.25;100.00;99336.19;5060459;28;19927;-70
2021/03/13 03:36:39;;;;;;;;;;;;;;;3.23;100.00;99340.78;5073905;28;20006;-70
2021/03/13 03:39:05;;;;;;;;;;;;;;;3.21;100.00;99342.72;5068601;28;19946;-70
2021/03/13 03:41:37;;;;;;;;;;;;;;;3.29;100.00;99337.69;5054248;28;20011;-70
2021/03/13 03:44:09;;;;;;;;;;;;;;;3.30;100.00;99334.00;5058864;28;19920;-69
2021/03/13 03:46:37;;;;;;;;;;;;;;;3.37;100.00;99334.41;5073823;28;19923;-70
2021/03/13 03:49:06;;;;;;;;;;;;;;;3.48;100.00;99340.69;5069672;28;19924;-70
2021/03/13 03:51:40;;;;;;;;;;;;;;;3.55;100.00;99330.38;5054047;28;19964;-70
2021/03/13 03:54:12;;;;;;;;;;;;;;;3.62;100.00;99320.03;5058362;28;20021;-70
2021/03/13 03:56:38;;;;;;;;;;;;;;;3.57;100.00;99325.75;5090203;28;19927;-70
2021/03/13 03:59:05;;;;;;;;;;;;;;;3.48;100.00;99326.44;5072076;28;19920;-70
2021/03/13 04:01:32;;;;;;;;;;;;;;;3.36;100.00;99330.88;5088558;28;19943;-70
2021/03/13 04:03:59;;;;;;;;;;;;;;;3.31;100.00;99322.31;5091889;28;19924;-70
2021/03/13 04:06:26;;;;;;;;;;;;;;;3.28;100.00;99322.53;5075692;28;19920;-69
2021/03/13 04:08:54;;;;;;;;;;;;;;;3.29;100.00;99329.63;5071851;28;19974;-70
2021/03/13 04:11:21;;;;;;;;;;;;;;;3.31;100.00;99327.69;5085534;28;19920;-69
2021/03/13 04:13:47;;;;;;;;;;;;;;;3.26;100.00;99332.50;5091223;28;20273;-69
2021/03/13 04:16:14;;;;;;;;;;;;;;;3.17;100.00;99331.38;5078562;28;19920;-69
2021/03/13 04:18:40;;;;;;;;;;;;;;;3.12;100.00;99320.97;5071414;28;20021;-70
2021/03/13 04:21:06;;;;;;;;;;;;;;;3.07;100.00;99325.81;5082466;28;20412;-70
2021/03/13 04:23:34;;;;;;;;;;;;;;;3.00;100.00;99320.03;5091617;28;20018;-69
2021/03/13 04:26:01;;;;;;;;;;;;;;;3.00;100.00;99317.34;5080225;28;19924;-69
2021/03/13 04:28:27;;;;;;;;;;;;;;;3.01;100.00;99320.91;5071382;28;20401;-69
2021/03/13 04:30:53;;;;;;;;;;;;;;;3.02;100.00;99322.63;5078733;28;19927;-69
2021/03/13 04:33:19;;;;;;;;;;;;;;;3.05;100.00;99316.16;5071284;28;19921;-69
2021/03/13 04:35:47;;;;;;;;;;;;;;;3.07;100.00;99324.97;5074822;28;20237;-69
2021/03/13 04:38:13;;;;;;;;;;;;;;;2.99;100.00;99317.47;5079486;28;20404;-69
2021/03/13 04:40:39;;;;;;;;;;;;;;;2.95;100.00;99324.91;5071241;28;19924;-71
2021/03/13 04:43:06;;;;;;;;;;;;;;;3.02;100.00;99322.63;5058715;28;20007;-69
2021/03/13 04:45:33;;;;;;;;;;;;;;;3.07;100.00;99328.47;5091102;28;20366;-69
2021/03/13 04:48:01;;;;;;;;;;;;;;;3.17;100.00;99326.84;5087203;28;19921;-69
2021/03/13 04:50:27;;;;;;;;;;;;;;;3.24;100.00;99327.28;5071159;28;20036;-69
2021/03/13 04:52:53;;;;;;;;;;;;;;;3.29;100.00;99318.91;5073490;28;19928;-69
2021/03/13 04:55:18;;;;;;;;;;;;;;;3.33;100.00;99329.28;5073348;28;20019;-71
2021/03/13 04:57:44;;;;;;;;;;;;;;;3.38;100.00;99322.72;5081079;28;19928;-69
2021/03/13 05:00:13;;;;;;;;;;;;;;;3.37;100.00;99316.50;5090783;28;19920;-71
2021/03/13 05:02:39;;;;;;;;;;;;;;;3.38;100.00;99302.13;5083747;28;20013;-69
2021/03/13 05:05:05;;;;;;;;;;;;;;;3.40;100.00;99300.19;5070972;28;19965;-69
2021/03/13 05:07:31;;;;;;;;;;;;;;;3.42;100.00;99302.75;5075910;28;19952;-69
2021/03/13 05:09:57;;;;;;;;;;;;;;;3.44;100.00;99307.03;5090254;28;19931;-69
2021/03/13 05:12:22;;;;;;;;;;;;;;;3.49;100.00;99307.53;5071063;28;19920;-69
2021/03/13 05:14:48;;;;;;;;;;;;;;;3.52;100.00;99303.78;5071081;28;19920;-69
2021/03/13 05:17:15;;;;;;;;;;;;;;;3.50;100.00;99303.91;5057801;28;20023;-70
2021/03/13 05:19:41;;;;;;;;;;;;;;;3.54;100.00;99303.66;5070923;28;19924;-69
2021/03/13 05:22:08;;;;;;;;;;;;;;;3.56;100.00;99305.25;5088627;28;19935;-70
2021/03/13 05:24:34;;;;;;;;;;;;;;;3.61;100.00;99299.56;5093402;28;19972;-69
2021/03/13 05:27:00;;;;;;;;;;;;;;;3.63;100.00;99289.56;5078016;28;20015;-69
2021/03/13 05:29:26;;;;;;;;;;;;;;;3.67;100.00;99291.03;5074478;28;19927;-69
2021/03/13 05:31:52;;;;;;;;;;;;;;;3.66;100.00;99284.81;5087315;28;19980;-69
2021/03/13 05:34:18;;;;;;;;;;;;;;;3.65;100.00;99283.09;5082746;28;20141;-70
2021/03/13 05:36:44;;;;;;;;;;;;;;;3.66;100.00;99287.50;5075381;28;19932;-69
2021/03/13 05:39:10;;;;;;;;;;;;;;;3.66;100.00;99282.13;5093852;28;19924;-70
2021/03/13 05:41:36;;;;;;;;;;;;;;;3.67;100.00;99280.28;5080729;28;20019;-70
2021/03/13 05:44:04;;;;;;;;;;;;;;;3.76;100.00;99279.59;5083952;28;20003;-70
2021/03/13 05:46:35;;;;;;;;;;;;;;;3.90;100.00;99273.19;5075001;28;19928;-70
2021/03/13 05:49:02;;;;;;;;;;;;;;;4.07;100.00;99279.94;5092795;28;20022;-69
2021/03/13 05:51:30;;;;;;;;;;;;;;;4.30;100.00;99272.78;5088467;28;20023;-71
2021/03/13 05:53:56;;;;;;;;;;;;;;;4.49;100.00;99274.88;5094428;28;20018;-70
2021/03/13 05:56:22;;;;;;;;;;;;;;;4.58;100.00;99262.53;5093613;28;19927;-69
2021/03/13 05:58:48;;;;;;;;;;;;;;;4.62;100.00;99263.16;5074581;28;19956;-70
2021/03/13 06:01:14;;;;;;;;;;;;;;;4.55;100.00;99265.47;5071425;28;19920;-70
2021/03/13 06:03:40;;;;;;;;;;;;;;;4.72;100.00;99253.38;5073534;28;20342;-69
2021/03/13 06:06:07;;;;;;;;;;;;;;;4.97;100.00;99256.75;5073703;28;20371;-70
2021/03/13 06:08:35;;;;;;;;;;;;;;;5.20;100.00;99247.66;5073176;28;20286;-70
2021/03/13 06:11:01;;;;;;;;;;;;;;;5.33;100.00;99243.94;5071462;28;20007;-70
2021/03/13 06:13:27;;;;;;;;;;;;;;;5.34;100.00;99240.28;5073244;28;19924;-70
2021/03/13 06:15:54;;;;;;;;;;;;;;;5.15;100.00;99243.66;5072703;28;19942;-70
2021/03/13 06:18:20;;;;;;;;;;;;;;;5.09;100.00;99236.06;5058842;28;20036;-69
2021/03/13 06:20:46;;;;;;;;;;;;;;;5.05;100.00;99251.63;5073596;28;20394;-70
2021/03/13 06:23:12;;;;;;;;;;;;;;;5.03;100.00;99229.38;5081620;28;19981;-69
2021/03/13 06:25:40;;;;;;;;;;;;;;;4.93;100.00;99231.09;5093265;28;19920;-70
2021/03/13 06:28:07;;;;;;;;;;;;;;;4.90;100.00;99228.66;5086629;28;19990;-69
2021/03/13 06:30:34;;;;;;;;;;;;;;;4.85;100.00;99219.13;5073347;28;19956;-69
2021/03/13 06:33:00;;;;;;;;;;;;;;;4.78;100.00;99217.91;5078722;28;19919;-70
2021/03/13 06:35:27;;;;;;;;;;;;;;;4.73;100.00;99220.16;5092566;28;19920;-70
2021/03/13 06:37:54;;;;;;;;;;;;;;;4.72;100.00;99218.44;5091565;28;20031;-71
2021/03/13 06:40:26;;;;;;;;;;;;;;;4.70;100.00;99220.38;5093385;28;19962;-69
2021/03/13 06:42:53;;;;;;;;;;;;;;;4.74;100.00;99221.81;5082492;28;19986;-70
2021/03/13 06:45:19;;;;;;;;;;;;;;;4.77;100.00;99216.22;5072891;28;19920;-69
2021/03/13 06:47:46;;;;;;;;;;;;;;;4.81;100.00;99220.38;5072699;28;20400;-70
2021/03/13 06:50:12;;;;;;;;;;;;;;;4.83;100.00;99209.47;5084534;28;20278;-69
2021/03/13 06:52:39;;;;;;;;;;;;;;;4.88;100.00;99207.28;5079271;28;19931;-69
2021/03/13 06:55:05;;;;;;;;;;;;;;;4.88;100.00;99206.41;5088284;28;19920;-70
2021/03/13 06:57:31;;;;;;;;;;;;;;;4.85;100.00;99202.13;5072746;28;20006;-70
2021/03/13 07:00:00;;;;;;;;;;;;;;;4.86;100.00;99202.03;5054645;28;19921;-70
2021/03/13 07:02:27;;;;;;;;;;;;;;;4.83;100.00;99194.19;5072780;28;19920;-70
2021/03/13 07:04:53;;;;;;;;;;;;;;;4.89;100.00;99202.75;5072734;28;20666;-70
2021/03/13 07:07:28;;;;;;;;;;;;;;;4.92;100.00;99194.41;5072413;28;19920;-70
2021/03/13 07:09:55;;;;;;;;;;;;;;;5.05;100.00;99192.47;5072563;28;19931;-70
2021/03/13 07:12:24;;;;;;;;;;;;;;;5.14;100.00;99186.28;5072680;28;19950;-70
2021/03/13 07:14:51;;;;;;;;;;;;;;;5.15;100.00;99182.63;5072544;28;19927;-71
2021/03/13 07:17:17;;;;;;;;;;;;;;;5.19;100.00;99184.06;5072216;28;19964;-70
2021/03/13 07:19:43;;;;;;;;;;;;;;;5.24;100.00;99172.94;5072494;28;20029;-71
2021/03/13 07:22:10;;;;;;;;;;;;;;;5.22;100.00;99176.75;5073982;28;20010;-71
2021/03/13 07:24:36;;;;;;;;;;;;;;;5.30;100.00;99169.72;5083780;28;19920;-71
2021/03/13 07:27:04;;;;;;;;;;;;;;;5.40;100.00;99172.50;5063665;28;20348;-70
2021/03/13 07:29:30;;;;;;;;;;;;;;;5.47;100.00;99176.38;5092539;28;19927;-71
2021/03/13 07:32:00;;;;;;;;;;;;;;;5.58;100.00;99167.38;5082715;28;19924;-70
2021/03/13 07:34:30;;;;;;;;;;;;;;;5.63;100.00;99167.84;5073595;28;19920;-70
2021/03/13 07:36:57;;;;;;;;;;;;;;;5.69;100.00;99177.22;5078828;28;19971;-70
2021/03/13 07:39:24;;;;;;;;;;;;;;;5.66;100.00;99178.34;5071511;28;19920;-70
2021/03/13 07:41:53;;;;;;;;;;;;;;;5.65;100.00;99159.63;5074448;28;20426;-71
2021/03/13 07:44:20;;;;;;;;;;;;;;;5.58;100.00;99161.16;5073030;28;20451;-71
2021/03/13 07:46:47;;;;;;;;;;;;;;;5.55;100.00;99156.03;5071272;28;20024;-71
2021/03/13 07:49:13;;;;;;;;;;;;;;;5.57;100.00;99151.38;5071370;28;19920;-72
2021/03/13 07:51:40;;;;;;;;;;;;;;;5.65;100.00;99152.44;5071790;28;20408;-72
2021/03/13 07:54:07;;;;;;;;;;;;;;;5.59;100.00;99146.72;5073972;28;20492;-69
2021/03/13 07:56:34;;;;;;;;;;;;;;;5.68;100.00;99146.78;5073595;28;20364;-73
2021/03/13 07:59:00;;;;;;;;;;;;;;;5.77;100.00;99142.44;5090664;28;19920;-71
2021/03/13 08:01:44;;;;;;;;;;;;;;;5.77;100.00;99142.44;5072800;28;19966;-71
2021/03/13 08:04:09;;;;;;;;;;;;;;;5.70;100.00;99139.44;5077985;28;19923;-71
2021/03/13 08:06:58;;;;;;;;;;;;;;;5.67;100.00;99136.97;5080182;28;20018;-71
2021/03/13 08:09:24;;;;;;;;;;;;;;;5.63;100.00;99132.84;5091910;28;19927;-71
2021/03/13 08:11:50;;;;;;;;;;;;;;;5.63;100.00;99132.00;5091898;28;20014;-71
2021/03/13 08:14:29;;;;;;;;;;;;;;;5.60;100.00;99116.09;5091851;28;20305;-71
2021/03/13 08:17:04;;;;;;;;;;;;;;;5.51;100.00;99113.22;5091679;28;19920;-69
2021/03/13 08:19:33;;;;;;;;;;;;;;;5.36;100.00;99128.84;5091798;28;19945;-71
2021/03/13 08:22:16;;;;;;;;;;;;;;;5.19;100.00;99119.50;5082733;28;19920;-70
2021/03/13 08:24:43;;;;;;;;;;;;;;;5.08;100.00;99103.44;5071449;28;19920;-70
2021/03/13 08:27:09;;;;;;;;;;;;;;;5.02;100.00;99096.75;5071389;28;20344;-70
2021/03/13 08:29:55;;;;;;;;;;;;;;;4.99;100.00;99102.34;5071551;28;19964;-70
2021/03/13 08:32:39;;;;;;;;;;;;;;;5.02;100.00;99098.56;5071524;28;19920;-70
2021/03/13 08:35:06;;;;;;;;;;;;;;;5.02;100.00;99091.34;5071394;28;19924;-71
2021/03/13 08:37:45;;;;;;;;;;;;;;;5.00;100.00;99090.63;5071005;28;19925;-70
2021/03/13 08:40:21;;;;;;;;;;;;;;;4.98;100.00;99089.91;5053320;28;19925;-70
2021/03/13 08:42:46;;;;;;;;;;;;;;;4.92;100.00;99089.53;5071080;28;20019;-71
2021/03/13 08:45:13;;;;;;;;;;;;;;;4.79;100.00;99077.13;5052964;28;19920;-70
2021/03/13 08:47:43;;;;;;;;;;;;;;;4.74;100.00;99082.03;5070510;28;19966;-71
2021/03/13 08:50:09;;;;;;;;;;;;;;;4.69;100.00;99074.38;5070722;28;19928;-70
2021/03/13 08:52:36;;;;;;;;;;;;;;;4.66;100.00;99057.63;5071470;28;19921;-71
2021/03/13 08:55:04;;;;;;;;;;;;;;;4.64;100.00;99051.56;5071023;28;19920;-71
2021/03/13 08:57:42;;;;;;;;;;;;;;;4.65;100.00;99047.84;5070393;28;19927;-71
2021/03/13 09:00:08;;;;;;;;;;;;;;;4.65;100.00;99035.28;5074065;28;19924;-71
2021/03/13 09:02:36;;;;;;;;;;;;;;;4.68;100.00;99036.88;5075032;28;20011;-71
2021/03/13 09:05:04;;;;;;;;;;;;;;;4.67;100.00;99022.56;5075083;28;20027;-71
2021/03/13 09:07:30;;;;;;;;;;;;;;;4.68;100.00;99013.53;5074840;28;19921;-70
2021/03/13 09:09:57;;;;;;;;;;;;;;;4.64;100.00;99014.75;5075225;28;20386;-70
2021/03/13 09:12:24;;;;;;;;;;;;;;;4.59;100.00;98990.09;5057137;28;20091;-70
2021/03/13 09:14:51;;;;;;;;;;;;;;;4.62;100.00;99006.00;5074844;28;19920;-71
2021/03/13 09:17:18;;;;;;;;;;;;;;;4.58;100.00;98999.13;5074825;28;20273;-71
2021/03/13 09:19:45;;;;;;;;;;;;;;;4.50;100.00;98955.94;5074672;28;20370;-71
2021/03/13 09:22:13;;;;;;;8.15;5.43;;;;;;;4.55;100.00;98987.81;5073766;28;20444;-71
2021/03/13 09:24:40;;;;;;;9.13;6.13;;;;;;;4.71;100.00;98971.25;5073048;28;20427;-71
2021/03/13 09:27:08;;;;;;;9.50;5.03;;;;;;;4.71;100.00;98947.06;5073149;28;20511;-72
2021/03/13 09:29:35;;;;;;;7.82;5.88;;;;;;;4.69;100.00;98957.94;5055339;28;20913;-73
2021/03/13 09:32:03;;;;;;;12.67;5.97;;;;;;;4.72;100.00;98970.25;5073529;28;20530;-73
2021/03/13 09:34:32;;;;;;;;;;;;;;;4.70;100.00;98970.38;5073329;28;20510;-73
2021/03/13 09:36:57;;;;;;;;;;;;;;;4.56;100.00;98943.81;5078123;28;19928;-73
2021/03/13 09:39:24;;;;;;;;;;;;;;;4.51;100.00;98942.38;5084052;28;19992;-73
2021/03/13 09:42:00;;;;;;;;;;;;;;;4.51;100.00;98942.38;5077208;28;19925;-73
2021/03/13 09:44:34;;;;;;;;;;;;;;;4.52;100.00;98935.19;5077061;28;19925;-73
2021/03/13 09:47:00;;;;;;;;;;;;;;;4.52;100.00;98919.91;5074047;28;20042;-73
2021/03/13 09:49:26;;;;;;;;;;;;;;;4.53;100.00;98905.47;5074283;28;19924;-72
2021/03/13 09:51:52;;;;;;;;;;;;;;;4.59;100.00;98906.78;5074201;28;20298;-73
2021/03/13 09:54:18;;;;;;;;;;;;;;;4.62;100.00;98902.97;5074272;28;19928;-73
2021/03/13 09:56:44;;;;;;;;;;;;;;;4.67;100.00;98892.69;5072271;28;20620;-72
2021/03/13 09:59:10;;;;;;;;;;;;;;;4.71;100.00;98891.44;5073244;28;19974;-72
2021/03/13 10:01:37;;;;;;;;;;;;;;;4.71;100.00;98877.16;5072261;28;20276;-71
2021/03/13 10:04:03;;;;;;;;;;;;;;;4.69;100.00;98867.41;5072033;28;19925;-71
2021/03/13 10:06:29;;;;;;;;;;;;;;;4.70;100.00;98857.47;5072057;28;19925;-71
2021/03/13 10:08:57;;;;;;;;;;;;;;;4.68;100.00;98829.91;5072112;28;19939;-72
2021/03/13 10:11:23;;;;;;;;;;;;;;;4.75;100.00;98852.56;5071057;28;19931;-72
2021/03/13 10:13:51;;;;;;;;;;;;;;;4.82;100.00;98858.25;5074080;28;19925;-72
2021/03/13 10:16:17;;;;;;;;;;;;;;;4.90;100.00;98855.75;5073720;28;20018;-71
2021/03/13 10:18:44;;;;;;;;;;;;;;;4.86;100.00;98841.75;5073772;28;20355;-72
2021/03/13 10:21:10;;;;;;;;;;;;;;;4.87;100.00;98813.00;5073731;28;19925;-72
2021/03/13 10:23:36;;;;;;;;;;;;;;;4.90;100.00;98841.47;5073671;28;20565;-72
2021/03/13 10:26:03;;;;;;;;;;;;;;;4.94;100.00;98824.06;5055382;28;20279;-71
2021/03/13 10:28:30;;;;;;;;;;;;;;;4.97;100.00;98826.47;5073887;28;19925;-72
2021/03/13 10:31:03;;;;;;;;;;;;;;;5.03;100.00;98824.09;5073755;28;19955;-71
2021/03/13 10:33:30;;;;;;;;;;;;;;;5.10;100.00;98813.66;5073614;28;19968;-71
2021/03/13 10:35:56;;;;;;;;;;;;;;;5.11;100.00;98799.22;5073381;28;19931;-71
2021/03/13 10:38:22;;;;;;;;;;;;;;;5.14;100.00;98798.09;5073621;28;20240;-71
2021/03/13 10:40:49;;;;;;;;;;;;;;;5.19;100.00;98790.47;5073535;28;19967;-71
2021/03/13 10:43:31;;;;;;;;;;;;;;;5.24;100.00;98784.66;5073225;28;19929;-72
2021/03/13 10:46:01;;;;;;;;;;;;;;;5.24;100.00;98765.84;5070952;28;20015;-73
2021/03/13 10:48:28;;;;;;;;;;;;;;;5.30;100.00;98776.88;5073175;28;19925;-72
2021/03/13 10:50:55;;;;;;;;;;;;;;;5.29;100.00;98769.81;5055434;28;19932;-72
2021/03/13 10:53:32;;;;;;;;;;;;;;;5.33;100.00;98760.50;5073461;28;20394;-72
2021/03/13 10:55:59;;;;;;;;;;;;;;;5.38;100.00;98751.97;5072597;28;19932;-72
2021/03/13 10:58:25;;;;;;;;;;;;;;;5.42;100.00;98739.09;5073016;28;19946;-72
2021/03/13 11:00:51;;;;;;;;;;;;;;;5.45;100.00;98730.75;5073161;28;20393;-72
2021/03/13 11:03:17;;;;;;;;;;;;;;;5.50;100.00;98723.09;5072548;28;19935;-72
2021/03/13 11:05:43;;;;;;;;;;;;;;;5.57;100.00;98732.31;5072484;28;19928;-72
2021/03/13 11:08:12;;;;;;;;;;;;;;;5.63;100.00;98723.66;5084674;28;19931;-72
2021/03/13 11:10:39;;;;;;;;;;;;;;;5.66;100.00;98728.75;5084102;28;19935;-72
2021/03/13 11:13:05;;;;;;;;;;;;;;;5.70;100.00;98723.94;5073107;28;19978;-72
2021/03/13 11:15:31;;;;;;;;;;;;;;;5.71;100.00;98720.28;5068000;28;19924;-72
2021/03/13 11:17:57;;;;;;;;;;;;;;;5.77;100.00;98713.47;5073989;28;19931;-72
2021/03/13 11:20:23;;;;;;;;;;;;;;;5.80;100.00;98724.81;5082231;28;19928;-72
2021/03/13 11:22:48;;;;;;;;;;;;;;;5.83;100.00;98724.50;5084755;28;19924;-72
2021/03/13 11:25:15;;;;;;;;;;;;;;;5.85;100.00;98708.19;5072256;28;20413;-72
2021/03/13 11:27:41;;;;;;;;;;;;;;;5.86;100.00;98718.00;5079160;28;19931;-72
2021/03/13 11:30:08;;;;;;;;;;;;;;;5.86;100.00;98705.38;5092777;28;19924;-72
2021/03/13 11:32:33;;;;;;;;;;;;;;;5.90;100.00;98691.63;5086571;28;19932;-72
2021/03/13 11:34:59;;;;;;;;;;;;;;;5.94;100.00;98687.66;5072397;28;19968;-72
2021/03/13 11:37:25;;;;;;;;;;;;;;;5.98;100.00;98694.47;5075862;28;19970;-72
2021/03/13 11:39:51;;;;;;;;;;;;;;;6.00;100.00;98687.94;5092381;28;19928;-72
2021/03/13 11:42:17;;;;;;;;;;;;;;;6.02;100.00;98679.72;5089891;28;19970;-72
2021/03/13 11:44:43;;;;;;;;;;;;;;;6.05;100.00;98676.72;5071916;28;19929;-72
2021/03/13 11:47:09;;;;;;;;;;;;;;;6.12;100.00;98667.09;5072352;28;19971;-72
2021/03/13 11:49:35;;;;;;;;;;;;;;;6.17;100.00;98659.41;5092213;28;19924;-71
2021/03/13 11:52:02;;;;;;;;;;;;;;;6.18;100.00;98650.31;5092316;28;19925;-72
2021/03/13 11:54:27;;;;;;;;;;;;;;;6.27;100.00;98656.69;5085679;28;19930;-72
2021/03/13 11:56:53;;;;;;;;;;;;;;;6.34;100.00;98641.59;5092075;28;19956;-72
2021/03/13 11:59:19;;;;;;;;;;;;;;;6.49;100.00;98642.00;5074258;28;19972;-72
2021/03/13 12:01:47;;;;;;;;;;;;;;;6.59;100.00;98627.56;5071159;28;21473;-72
2021/03/13 12:04:13;;;;;;;;;;;;;;;6.72;100.00;98625.41;5069830;28;20029;-72
2021/03/13 12:06:38;;;;;;;;;;;;;;;6.92;100.00;98611.78;5092010;28;19932;-72
2021/03/13 12:09:05;;;;;;;;;;;;;;;7.03;100.00;98603.47;5076969;28;19932;-72
2021/03/13 12:11:31;;;;;;;;;;;;;;;7.20;100.00;98582.84;5071692;28;19924;-72
2021/03/13 12:13:57;;;;;;;;;;;;;;;7.43;100.00;98594.03;5084430;28;19977;-72
2021/03/13 12:16:23;;;;;;;;;;;;;;;7.76;100.00;98566.41;5091531;28;19927;-72
2021/03/13 12:18:51;;;;;;;;;;;;;;;7.98;100.00;98562.31;5080395;28;20267;-72
2021/03/13 12:21:16;;;;;;;2.38;1.58;;;;;;;8.06;100.00;98546.16;5071224;28;20419;-72
2021/03/13 12:23:42;;;;;;;2.88;1.60;;;;;;;8.14;100.00;98548.06;5079494;28;20432;-71
2021/03/13 12:26:08;;;;;;;3.27;1.43;;;;;;;8.29;100.00;98545.56;5053694;28;20438;-72
2021/03/13 12:28:35;;;;;;;4.25;1.90;;;;;;;8.65;100.00;98545.38;5082353;28;20460;-72
2021/03/13 12:31:00;;;;;;;2.92;1.40;;;;;;;9.02;100.00;98531.38;5069695;28;20423;-72
2021/03/13 12:33:26;;;;;;;3.13;1.55;;;;;;;9.46;100.00;98522.06;5069146;28;20415;-72
2021/03/13 12:35:53;;;;;;;;;;;;;;;9.47;100.00;98518.31;5069855;28;20896;-71
2021/03/13 12:38:19;;;;;;;;;;;;;;;9.24;100.00;98501.94;5071369;28;20389;-71
2021/03/13 12:40:45;;;;;;;;;;;;;;;9.40;100.00;98497.53;5071446;28;19920;-71
2021/03/13 12:43:11;;;;;;;;;;;;;;;9.42;100.00;98480.09;5072150;28;19920;-66
2021/03/13 12:45:36;;;;;;;;;;;;;;;9.48;100.00;98479.41;5056228;28;20307;-72